sensor_id;sensor_type;location;lat;lon;timestamp;pressure;altitude;pressure_sealevel;temperature;humidity
53514;BME280;39768;54.148;12.174;2022-10-04T00:06:23;102001.97;;;14.80;100.00
53514;BME280;39768;54.148;12.174;2022-10-04T00:10:30;101996.47;;;14.92;100.00
53514;BME280;39768;54.148;12.174;2022-10-04T00:14:38;101999.19;;;14.88;100.00
53514;BME280;39768;54.148;12.174;2022-10-04T00:18:44;101987.81;;;14.70;100.00
53514;BME280;39768;54.148;12.174;2022-10-04T00:27:26;101994.03;;;14.69;100.00
53514;BME280;39768;54.148;12.174;2022-10-04T00:31:28;101992.31;;;14.68;100.00
53514;BME280;39768;54.148;12.174;2022-10-04T00:43:39;101991.53;;;14.56;100.00
53514;BME280;39768;54.148;12.174;2022-10-04T00:52:20;101987.16;;;14.49;100.00
53514;BME280;39768;54.148;12.174;2022-10-04T00:56:30;101983.59;;;14.48;100.00
53514;BME280;39768;54.148;12.174;2022-10-04T01:00:34;101982.75;;;14.41;100.00
53514;BME280;39768;54.148;12.174;2022-10-04T01:04:45;101981.03;;;14.36;100.00
53514;BME280;39768;54.148;12.174;2022-10-04T01:09:01;101976.47;;;14.47;100.00
53514;BME280;39768;54.148;12.174;2022-10-04T01:13:18;101971.28;;;14.26;100.00
53514;BME280;39768;54.148;12.174;2022-10-04T01:17:20;101972.06;;;14.44;100.00
53514;BME280;39768;54.148;12.174;2022-10-04T01:21:25;101975.63;;;14.40;100.00
53514;BME280;39768;54.148;12.174;2022-10-04T01:25:46;101972.97;;;14.39;100.00
53514;BME280;39768;54.148;12.174;2022-10-04T01:29:48;101978.22;;;14.51;100.00
53514;BME280;39768;54.148;12.174;2022-10-04T01:33:53;101971.88;;;14.63;100.00
53514;BME280;39768;54.148;12.174;2022-10-04T01:37:55;101977.00;;;14.81;100.00
53514;BME280;39768;54.148;12.174;2022-10-04T01:42:17;101973.50;;;14.74;100.00
53514;BME280;39768;54.148;12.174;2022-10-04T01:46:24;101970.84;;;14.74;100.00
53514;BME280;39768;54.148;12.174;2022-10-04T01:50:34;101965.34;;;14.85;100.00
53514;BME280;39768;54.148;12.174;2022-10-04T01:54:44;101969.94;;;14.74;100.00
53514;BME280;39768;54.148;12.174;2022-10-04T01:58:50;101970.81;;;14.76;100.00
53514;BME280;39768;54.148;12.174;2022-10-04T02:03:27;101961.78;;;14.85;100.00
53514;BME280;39768;54.148;12.174;2022-10-04T02:07:21;101963.47;;;14.96;100.00
53514;BME280;39768;54.148;12.174;2022-10-04T02:11:26;101964.56;;;14.77;100.00
53514;BME280;39768;54.148;12.174;2022-10-04T02:15:30;101951.16;;;14.81;100.00
53514;BME280;39768;54.148;12.174;2022-10-04T02:19:34;101953.75;;;14.88;100.00
53514;BME280;39768;54.148;12.174;2022-10-04T02:23:38;101951.88;;;14.96;100.00
53514;BME280;39768;54.148;12.174;2022-10-04T02:27:41;101956.44;;;14.85;100.00
53514;BME280;39768;54.148;12.174;2022-10-04T02:31:43;101953.88;;;14.77;100.00
53514;BME280;39768;54.148;12.174;2022-10-04T02:36:03;101950.34;;;14.73;100.00
53514;BME280;39768;54.148;12.174;2022-10-04T02:40:14;101948.72;;;14.59;100.00
53514;BME280;39768;54.148;12.174;2022-10-04T02:44:26;101943.41;;;14.56;100.00
53514;BME280;39768;54.148;12.174;2022-10-04T02:48:36;101949.75;;;14.49;100.00
53514;BME280;39768;54.148;12.174;2022-10-04T02:52:45;101942.66;;;14.44;100.00
53514;BME280;39768;54.148;12.174;2022-10-04T02:56:51;101939.88;;;14.55;100.00
53514;BME280;39768;54.148;12.174;2022-10-04T03:00:58;101937.19;;;14.57;100.00
53514;BME280;39768;54.148;12.174;2022-10-04T03:05:06;101933.53;;;14.64;100.00
53514;BME280;39768;54.148;12.174;2022-10-04T03:09:08;101940.56;;;14.71;100.00
53514;BME280;39768;54.148;12.174;2022-10-04T03:13:12;101939.75;;;14.69;100.00
53514;BME280;39768;54.148;12.174;2022-10-04T03:17:16;101934.50;;;14.55;100.00
53514;BME280;39768;54.148;12.174;2022-10-04T03:21:19;101936.41;;;14.47;100.00
53514;BME280;39768;54.148;12.174;2022-10-04T03:25:27;101927.53;;;14.42;100.00
53514;BME280;39768;54.148;12.174;2022-10-04T03:29:31;101933.75;;;14.39;100.00
53514;BME280;39768;54.148;12.174;2022-10-04T03:33:34;101925.97;;;14.18;100.00
53514;BME280;39768;54.148;12.174;2022-10-04T03:37:36;101936.53;;;14.30;100.00
53514;BME280;39768;54.148;12.174;2022-10-04T03:41:39;101935.75;;;14.22;100.00
53514;BME280;39768;54.148;12.174;2022-10-04T03:45:41;101933.06;;;14.22;100.00
53514;BME280;39768;54.148;12.174;2022-10-04T03:49:44;101932.03;;;14.37;100.00
53514;BME280;39768;54.148;12.174;2022-10-04T03:54:01;101920.22;;;14.59;100.00
53514;BME280;39768;54.148;12.174;2022-10-04T03:58:04;101924.63;;;14.65;100.00
53514;BME280;39768;54.148;12.174;2022-10-04T04:02:14;101921.63;;;14.92;100.00
53514;BME280;39768;54.148;12.174;2022-10-04T04:06:19;101920.53;;;15.07;100.00
53514;BME280;39768;54.148;12.174;2022-10-04T04:10:30;101927.28;;;15.32;100.00
53514;BME280;39768;54.148;12.174;2022-10-04T04:14:34;101922.81;;;15.34;100.00
53514;BME280;39768;54.148;12.174;2022-10-04T04:18:37;101929.03;;;15.36;100.00
53514;BME280;39768;54.148;12.174;2022-10-04T04:22:43;101930.09;;;15.25;100.00
53514;BME280;39768;54.148;12.174;2022-10-04T04:26:50;101922.97;;;15.24;100.00
53514;BME280;39768;54.148;12.174;2022-10-04T04:31:03;101925.81;;;15.13;100.00
53514;BME280;39768;54.148;12.174;2022-10-04T04:39:23;101930.34;;;15.06;100.00
53514;BME280;39768;54.148;12.174;2022-10-04T04:43:44;101918.97;;;14.91;100.00
53514;BME280;39768;54.148;12.174;2022-10-04T04:47:48;101916.13;;;15.01;100.00
53514;BME280;39768;54.148;12.174;2022-10-04T04:51:51;101907.38;;;14.90;100.00
53514;BME280;39768;54.148;12.174;2022-10-04T04:56:00;101912.50;;;15.07;100.00
53514;BME280;39768;54.148;12.174;2022-10-04T05:00:05;101915.91;;;15.18;100.00
53514;BME280;39768;54.148;12.174;2022-10-04T05:08:17;101912.59;;;14.99;100.00
53514;BME280;39768;54.148;12.174;2022-10-04T05:12:21;101911.81;;;14.91;100.00
53514;BME280;39768;54.148;12.174;2022-10-04T05:16:44;101909.34;;;14.74;100.00
53514;BME280;39768;54.148;12.174;2022-10-04T05:20:50;101909.44;;;14.68;100.00
53514;BME280;39768;54.148;12.174;2022-10-04T05:24:56;101906.59;;;14.82;100.00
53514;BME280;39768;54.148;12.174;2022-10-04T05:29:07;101917.50;;;14.64;100.00
53514;BME280;39768;54.148;12.174;2022-10-04T05:33:13;101913.22;;;14.49;100.00
53514;BME280;39768;54.148;12.174;2022-10-04T05:37:24;101916.88;;;14.40;100.00
53514;BME280;39768;54.148;12.174;2022-10-04T05:45:36;101926.63;;;14.46;100.00
53514;BME280;39768;54.148;12.174;2022-10-04T05:49:42;101928.47;;;14.36;100.00
53514;BME280;39768;54.148;12.174;2022-10-04T05:53:47;101925.66;;;14.53;100.00
53514;BME280;39768;54.148;12.174;2022-10-04T05:58:10;101919.66;;;14.27;100.00
53514;BME280;39768;54.148;12.174;2022-10-04T06:02:40;101932.06;;;14.34;100.00
53514;BME280;39768;54.148;12.174;2022-10-04T06:06:54;101937.31;;;14.44;100.00
53514;BME280;39768;54.148;12.174;2022-10-04T06:11:30;101933.59;;;14.58;100.00
53514;BME280;39768;54.148;12.174;2022-10-04T06:24:19;101945.69;;;14.91;100.00
53514;BME280;39768;54.148;12.174;2022-10-04T06:28:33;101940.22;;;15.00;100.00
53514;BME280;39768;54.148;12.174;2022-10-04T06:41:35;101958.50;;;15.32;100.00
53514;BME280;39768;54.148;12.174;2022-10-04T06:46:04;101954.81;;;15.42;100.00
53514;BME280;39768;54.148;12.174;2022-10-04T06:50:25;101957.66;;;15.30;100.00
53514;BME280;39768;54.148;12.174;2022-10-04T06:54:44;101962.53;;;15.65;100.00
53514;BME280;39768;54.148;12.174;2022-10-04T07:03:11;101960.44;;;15.85;100.00
53514;BME280;39768;54.148;12.174;2022-10-04T07:11:49;101962.25;;;15.83;100.00
53514;BME280;39768;54.148;12.174;2022-10-04T07:16:08;101957.84;;;15.80;100.00
53514;BME280;39768;54.148;12.174;2022-10-04T07:20:30;101954.59;;;16.14;100.00
53514;BME280;39768;54.148;12.174;2022-10-04T07:24:56;101968.84;;;16.16;100.00
53514;BME280;39768;54.148;12.174;2022-10-04T07:29:02;101969.19;;;15.95;100.00
53514;BME280;39768;54.148;12.174;2022-10-04T07:33:24;101977.13;;;16.02;100.00
53514;BME280;39768;54.148;12.174;2022-10-04T07:37:29;101974.50;;;15.99;100.00
53514;BME280;39768;54.148;12.174;2022-10-04T07:41:42;101967.66;;;15.80;100.00
53514;BME280;39768;54.148;12.174;2022-10-04T07:45:50;101979.63;;;15.53;100.00
53514;BME280;39768;54.148;12.174;2022-10-04T07:49:54;101987.56;;;15.62;100.00
53514;BME280;39768;54.148;12.174;2022-10-04T07:54:17;101986.84;;;15.48;100.00
53514;BME280;39768;54.148;12.174;2022-10-04T08:07:42;101979.94;;;15.29;100.00
53514;BME280;39768;54.148;12.174;2022-10-04T08:11:58;101988.66;;;15.44;100.00
53514;BME280;39768;54.148;12.174;2022-10-04T08:16:16;101979.03;;;15.31;100.00
53514;BME280;39768;54.148;12.174;2022-10-04T08:24:34;101982.00;;;15.74;100.00
53514;BME280;39768;54.148;12.174;2022-10-04T08:37:49;101982.06;;;16.25;100.00
53514;BME280;39768;54.148;12.174;2022-10-04T08:51:45;101993.38;;;16.44;100.00
53514;BME280;39768;54.148;12.174;2022-10-04T08:56:08;101992.56;;;16.39;100.00
53514;BME280;39768;54.148;12.174;2022-10-04T09:00:22;102001.09;;;16.10;100.00
53514;BME280;39768;54.148;12.174;2022-10-04T09:04:50;101990.06;;;16.30;100.00
53514;BME280;39768;54.148;12.174;2022-10-04T09:13:36;101994.94;;;16.55;100.00
53514;BME280;39768;54.148;12.174;2022-10-04T09:17:52;101998.34;;;16.65;100.00
53514;BME280;39768;54.148;12.174;2022-10-04T09:22:13;102003.53;;;16.76;100.00
53514;BME280;39768;54.148;12.174;2022-10-04T09:26:22;102007.50;;;17.01;100.00
53514;BME280;39768;54.148;12.174;2022-10-04T09:30:51;102008.25;;;16.62;100.00
53514;BME280;39768;54.148;12.174;2022-10-04T09:39:34;102006.84;;;16.90;100.00
53514;BME280;39768;54.148;12.174;2022-10-04T09:48:27;101993.63;;;17.22;100.00
53514;BME280;39768;54.148;12.174;2022-10-04T09:56:56;101992.03;;;17.14;100.00
53514;BME280;39768;54.148;12.174;2022-10-04T10:01:15;101989.44;;;17.09;100.00
53514;BME280;39768;54.148;12.174;2022-10-04T10:10:06;101973.44;;;17.05;100.00
53514;BME280;39768;54.148;12.174;2022-10-04T10:15:02;101980.09;;;17.27;100.00
53514;BME280;39768;54.148;12.174;2022-10-04T10:19:35;101978.03;;;17.40;100.00
53514;BME280;39768;54.148;12.174;2022-10-04T10:24:02;101978.84;;;17.43;100.00
53514;BME280;39768;54.148;12.174;2022-10-04T10:33:04;101982.94;;;17.21;100.00
53514;BME280;39768;54.148;12.174;2022-10-04T10:41:38;101963.22;;;17.62;100.00
53514;BME280;39768;54.148;12.174;2022-10-04T10:54:53;101968.75;;;17.54;100.00
53514;BME280;39768;54.148;12.174;2022-10-04T10:59:14;101972.31;;;17.95;100.00
53514;BME280;39768;54.148;12.174;2022-10-04T11:03:44;101972.03;;;18.06;100.00
53514;BME280;39768;54.148;12.174;2022-10-04T11:12:31;101965.00;;;18.00;100.00
53514;BME280;39768;54.148;12.174;2022-10-04T11:30:02;101967.25;;;18.51;100.00
53514;BME280;39768;54.148;12.174;2022-10-04T11:38:48;101950.09;;;18.22;100.00
53514;BME280;39768;54.148;12.174;2022-10-04T11:47:27;101950.59;;;18.03;100.00
53514;BME280;39768;54.148;12.174;2022-10-04T11:52:17;101942.56;;;18.01;100.00
53514;BME280;39768;54.148;12.174;2022-10-04T11:56:35;101936.78;;;18.18;100.00
53514;BME280;39768;54.148;12.174;2022-10-04T12:01:15;101939.25;;;18.25;100.00
53514;BME280;39768;54.148;12.174;2022-10-04T12:05:44;101922.25;;;18.57;100.00
53514;BME280;39768;54.148;12.174;2022-10-04T12:14:41;101906.22;;;18.54;100.00
53514;BME280;39768;54.148;12.174;2022-10-04T12:28:13;101902.06;;;18.41;100.00
53514;BME280;39768;54.148;12.174;2022-10-04T12:32:24;101894.84;;;18.76;100.00
53514;BME280;39768;54.148;12.174;2022-10-04T12:36:35;101890.78;;;19.21;100.00
53514;BME280;39768;54.148;12.174;2022-10-04T12:45:01;101896.72;;;19.03;97.23
53514;BME280;39768;54.148;12.174;2022-10-04T12:49:28;101891.78;;;18.88;100.00
53514;BME280;39768;54.148;12.174;2022-10-04T12:53:38;101895.56;;;18.82;100.00
53514;BME280;39768;54.148;12.174;2022-10-04T12:57:48;101892.75;;;18.85;100.00
53514;BME280;39768;54.148;12.174;2022-10-04T13:02:24;101895.50;;;19.43;99.07
53514;BME280;39768;54.148;12.174;2022-10-04T13:06:52;101883.53;;;19.23;100.00
53514;BME280;39768;54.148;12.174;2022-10-04T13:15:36;101870.41;;;19.13;99.44
53514;BME280;39768;54.148;12.174;2022-10-04T13:24:51;101857.31;;;19.58;96.35
53514;BME280;39768;54.148;12.174;2022-10-04T13:33:39;101851.19;;;19.53;92.50
53514;BME280;39768;54.148;12.174;2022-10-04T13:47:12;101842.00;;;19.02;92.92
53514;BME280;39768;54.148;12.174;2022-10-04T13:56:43;101842.31;;;19.21;96.55
53514;BME280;39768;54.148;12.174;2022-10-04T14:00:55;101843.22;;;19.50;97.57
53514;BME280;39768;54.148;12.174;2022-10-04T14:09:21;101824.91;;;19.86;92.39
53514;BME280;39768;54.148;12.174;2022-10-04T14:18:14;101826.84;;;20.07;92.93
53514;BME280;39768;54.148;12.174;2022-10-04T14:31:43;101810.25;;;19.68;93.78
53514;BME280;39768;54.148;12.174;2022-10-04T14:44:41;101797.41;;;18.95;94.67
53514;BME280;39768;54.148;12.174;2022-10-04T14:53:21;101777.22;;;19.09;93.75
53514;BME280;39768;54.148;12.174;2022-10-04T14:58:04;101782.94;;;19.26;94.95
53514;BME280;39768;54.148;12.174;2022-10-04T15:06:49;101785.34;;;19.07;96.73
53514;BME280;39768;54.148;12.174;2022-10-04T15:10:53;101775.59;;;19.03;97.96
53514;BME280;39768;54.148;12.174;2022-10-04T15:27:44;101768.41;;;18.76;99.40
53514;BME280;39768;54.148;12.174;2022-10-04T15:32:13;101779.91;;;18.51;99.77
53514;BME280;39768;54.148;12.174;2022-10-04T15:45:30;101770.44;;;18.38;99.88
53514;BME280;39768;54.148;12.174;2022-10-04T15:49:54;101769.72;;;18.31;99.26
53514;BME280;39768;54.148;12.174;2022-10-04T15:54:13;101757.25;;;18.29;100.00
53514;BME280;39768;54.148;12.174;2022-10-04T15:58:43;101764.66;;;18.21;100.00
53514;BME280;39768;54.148;12.174;2022-10-04T16:07:50;101769.59;;;18.05;100.00
53514;BME280;39768;54.148;12.174;2022-10-04T16:12:28;101759.22;;;17.93;100.00
53514;BME280;39768;54.148;12.174;2022-10-04T16:24:57;101786.94;;;17.59;100.00
53514;BME280;39768;54.148;12.174;2022-10-04T16:33:52;101779.56;;;17.34;100.00
53514;BME280;39768;54.148;12.174;2022-10-04T16:42:00;101756.66;;;16.82;100.00
53514;BME280;39768;54.148;12.174;2022-10-04T16:46:22;101750.94;;;16.97;100.00
53514;BME280;39768;54.148;12.174;2022-10-04T16:50:57;101745.91;;;16.83;100.00
53514;BME280;39768;54.148;12.174;2022-10-04T16:55:25;101742.66;;;16.69;100.00
53514;BME280;39768;54.148;12.174;2022-10-04T16:59:44;101754.22;;;16.71;100.00
53514;BME280;39768;54.148;12.174;2022-10-04T17:12:23;101744.06;;;16.45;100.00
53514;BME280;39768;54.148;12.174;2022-10-04T17:17:00;101739.94;;;16.31;100.00
53514;BME280;39768;54.148;12.174;2022-10-04T17:21:11;101730.25;;;16.22;100.00
53514;BME280;39768;54.148;12.174;2022-10-04T17:25:29;101736.78;;;16.09;100.00
53514;BME280;39768;54.148;12.174;2022-10-04T17:29:52;101733.31;;;16.04;100.00
53514;BME280;39768;54.148;12.174;2022-10-04T17:34:19;101742.53;;;15.89;100.00
53514;BME280;39768;54.148;12.174;2022-10-04T17:42:55;101732.91;;;15.80;100.00
53514;BME280;39768;54.148;12.174;2022-10-04T17:47:24;101735.81;;;15.70;100.00
53514;BME280;39768;54.148;12.174;2022-10-04T17:51:37;101740.44;;;15.59;100.00
53514;BME280;39768;54.148;12.174;2022-10-04T17:55:59;101728.06;;;15.53;100.00
53514;BME280;39768;54.148;12.174;2022-10-04T18:00:09;101729.97;;;15.45;100.00
53514;BME280;39768;54.148;12.174;2022-10-04T18:04:25;101734.50;;;15.41;100.00
53514;BME280;39768;54.148;12.174;2022-10-04T18:08:43;101741.47;;;15.50;100.00
53514;BME280;39768;54.148;12.174;2022-10-04T18:12:57;101750.56;;;15.41;100.00
53514;BME280;39768;54.148;12.174;2022-10-04T18:17:04;101761.31;;;15.38;100.00
53514;BME280;39768;54.148;12.174;2022-10-04T18:21:21;101751.78;;;15.22;100.00
53514;BME280;39768;54.148;12.174;2022-10-04T18:25:24;101745.56;;;15.22;100.00
53514;BME280;39768;54.148;12.174;2022-10-04T18:29:38;101742.78;;;15.28;100.00
53514;BME280;39768;54.148;12.174;2022-10-04T18:37:41;101728.72;;;15.15;100.00
53514;BME280;39768;54.148;12.174;2022-10-04T18:41:52;101736.00;;;15.05;100.00
53514;BME280;39768;54.148;12.174;2022-10-04T18:54:54;101737.03;;;14.98;100.00
53514;BME280;39768;54.148;12.174;2022-10-04T18:59:32;101740.75;;;14.88;100.00
53514;BME280;39768;54.148;12.174;2022-10-04T19:04:02;101738.97;;;14.87;100.00
53514;BME280;39768;54.148;12.174;2022-10-04T19:08:29;101738.19;;;14.82;100.00
53514;BME280;39768;54.148;12.174;2022-10-04T19:17:23;101737.28;;;14.83;100.00
53514;BME280;39768;54.148;12.174;2022-10-04T19:21:38;101728.13;;;14.98;100.00
53514;BME280;39768;54.148;12.174;2022-10-04T19:25:52;101702.41;;;14.89;100.00
53514;BME280;39768;54.148;12.174;2022-10-04T19:30:19;101678.47;;;14.81;100.00
53514;BME280;39768;54.148;12.174;2022-10-04T19:34:46;101689.97;;;14.85;100.00
53514;BME280;39768;54.148;12.174;2022-10-04T19:39:41;101702.53;;;14.83;100.00
53514;BME280;39768;54.148;12.174;2022-10-04T19:44:00;101712.44;;;14.75;100.00
53514;BME280;39768;54.148;12.174;2022-10-04T19:48:17;101715.94;;;14.80;100.00
53514;BME280;39768;54.148;12.174;2022-10-04T19:52:33;101692.56;;;14.93;100.00
53514;BME280;39768;54.148;12.174;2022-10-04T19:56:43;101699.72;;;14.91;100.00
53514;BME280;39768;54.148;12.174;2022-10-04T20:00:47;101691.72;;;14.88;100.00
53514;BME280;39768;54.148;12.174;2022-10-04T20:04:49;101692.56;;;14.91;100.00
53514;BME280;39768;54.148;12.174;2022-10-04T20:08:55;101691.75;;;14.86;100.00
53514;BME280;39768;54.148;12.174;2022-10-04T20:17:05;101689.28;;;14.74;100.00
53514;BME280;39768;54.148;12.174;2022-10-04T20:21:08;101689.25;;;14.75;100.00
53514;BME280;39768;54.148;12.174;2022-10-04T20:25:10;101697.41;;;14.68;100.00
53514;BME280;39768;54.148;12.174;2022-10-04T20:41:45;101716.06;;;14.71;100.00
53514;BME280;39768;54.148;12.174;2022-10-04T20:46:20;101716.41;;;14.48;100.00
53514;BME280;39768;54.148;12.174;2022-10-04T20:54:31;101710.22;;;14.44;100.00
53514;BME280;39768;54.148;12.174;2022-10-04T20:58:33;101702.19;;;14.46;100.00
53514;BME280;39768;54.148;12.174;2022-10-04T21:02:35;101691.66;;;14.32;100.00
53514;BME280;39768;54.148;12.174;2022-10-04T21:06:50;101692.53;;;14.33;100.00
53514;BME280;39768;54.148;12.174;2022-10-04T21:11:07;101677.47;;;14.27;100.00
53514;BME280;39768;54.148;12.174;2022-10-04T21:23:34;101671.31;;;14.24;100.00
53514;BME280;39768;54.148;12.174;2022-10-04T21:27:37;101673.19;;;14.17;100.00
53514;BME280;39768;54.148;12.174;2022-10-04T21:31:39;101670.53;;;14.14;100.00
53514;BME280;39768;54.148;12.174;2022-10-04T21:35:41;101667.03;;;14.10;100.00
53514;BME280;39768;54.148;12.174;2022-10-04T21:39:43;101653.75;;;14.06;100.00
53514;BME280;39768;54.148;12.174;2022-10-04T21:43:45;101651.84;;;14.14;100.00
53514;BME280;39768;54.148;12.174;2022-10-04T21:47:46;101642.88;;;14.20;100.00
53514;BME280;39768;54.148;12.174;2022-10-04T21:51:47;101644.66;;;14.19;100.00
53514;BME280;39768;54.148;12.174;2022-10-04T21:55:49;101648.31;;;14.10;100.00
53514;BME280;39768;54.148;12.174;2022-10-04T21:59:50;101651.94;;;14.09;100.00
53514;BME280;39768;54.148;12.174;2022-10-04T22:03:52;101634.84;;;14.23;100.00
53514;BME280;39768;54.148;12.174;2022-10-04T22:07:54;101618.81;;;14.21;100.00
53514;BME280;39768;54.148;12.174;2022-10-04T22:11:55;101620.75;;;14.10;100.00
53514;BME280;39768;54.148;12.174;2022-10-04T22:15:57;101614.56;;;14.09;100.00
53514;BME280;39768;54.148;12.174;2022-10-04T22:19:58;101626.19;;;14.04;100.00
53514;BME280;39768;54.148;12.174;2022-10-04T22:24:02;101629.81;;;13.98;100.00
53514;BME280;39768;54.148;12.174;2022-10-04T22:28:15;101637.75;;;14.04;100.00
53514;BME280;39768;54.148;12.174;2022-10-04T22:32:22;101647.53;;;14.04;100.00
53514;BME280;39768;54.148;12.174;2022-10-04T22:36:36;101623.59;;;13.98;100.00
53514;BME280;39768;54.148;12.174;2022-10-04T22:40:37;101632.63;;;13.88;100.00
53514;BME280;39768;54.148;12.174;2022-10-04T22:44:40;101628.25;;;13.81;100.00
53514;BME280;39768;54.148;12.174;2022-10-04T22:48:46;101621.88;;;13.94;100.00
53514;BME280;39768;54.148;12.174;2022-10-04T22:52:48;101605.03;;;13.89;100.00
53514;BME280;39768;54.148;12.174;2022-10-04T22:56:51;101600.38;;;14.03;100.00
53514;BME280;39768;54.148;12.174;2022-10-04T23:00:53;101596.16;;;13.87;100.00
53514;BME280;39768;54.148;12.174;2022-10-04T23:04:58;101584.47;;;13.95;100.00
53514;BME280;39768;54.148;12.174;2022-10-04T23:09:01;101595.47;;;13.71;100.00
53514;BME280;39768;54.148;12.174;2022-10-04T23:13:02;101602.59;;;13.70;100.00
53514;BME280;39768;54.148;12.174;2022-10-04T23:17:22;101599.75;;;13.86;100.00
53514;BME280;39768;54.148;12.174;2022-10-04T23:21:25;101598.13;;;13.74;100.00
53514;BME280;39768;54.148;12.174;2022-10-04T23:25:28;101582.13;;;13.72;100.00
53514;BME280;39768;54.148;12.174;2022-10-04T23:29:32;101575.94;;;13.69;100.00
53514;BME280;39768;54.148;12.174;2022-10-04T23:33:34;101575.06;;;13.68;100.00
53514;BME280;39768;54.148;12.174;2022-10-04T23:37:36;101566.09;;;13.74;100.00
53514;BME280;39768;54.148;12.174;2022-10-04T23:41:38;101563.50;;;13.66;100.00
53514;BME280;39768;54.148;12.174;2022-10-04T23:45:39;101562.72;;;13.61;100.00
53514;BME280;39768;54.148;12.174;2022-10-04T23:49:45;101553.03;;;13.51;100.00
53514;BME280;39768;54.148;12.174;2022-10-04T23:53:48;101552.06;;;13.58;100.00
53514;BME280;39768;54.148;12.174;2022-10-04T23:57:50;101549.41;;;13.58;100.00
